Time;durP1;ratioP1;P1;durP2;ratioP2;P2;SDS_P1;SDS_P2;PMS_P1;PMS_P2;Temp;Humidity;BMP_temperature;BMP_pressure;BME280_temperature;BME280_humidity;BME280_pressure;Samples;Min_cycle;Max_cycle;Signal;HPM_P1;HPM_P2
2023/01/21 04:00:51;;;;;;;6.30;5.70;;;-0.20;74.80;;;;;;6056666;23;20356;31
2023/01/21 04:03:19;;;;;;;5.20;4.70;;;-0.30;74.90;;;;;;4934394;29;20296;-69
2023/01/21 04:05:45;;;;;;;5.80;5.20;;;-0.30;75.20;;;;;;4935943;29;20455;-69
2023/01/21 04:08:12;;;;;;;5.23;4.73;;;-0.30;75.20;;;;;;4935859;29;20531;-69
2023/01/21 04:10:39;;;;;;;6.77;6.07;;;-0.30;75.10;;;;;;4935783;29;20499;-68
2023/01/21 04:13:05;;;;;;;6.00;5.50;;;-0.30;75.30;;;;;;4935903;29;20483;-68
2023/01/21 04:15:35;;;;;;;4.93;4.53;;;-0.30;75.50;;;;;;4936400;29;20488;-68
2023/01/21 04:18:01;;;;;;;5.13;4.73;;;-0.30;75.10;;;;;;4935809;29;20515;-68
2023/01/21 04:20:29;;;;;;;5.87;5.37;;;-0.20;75.20;;;;;;4935447;29;20507;-69
2023/01/21 04:22:56;;;;;;;5.10;4.40;;;-0.20;75.20;;;;;;4935465;29;21013;-69
2023/01/21 04:25:23;;;;;;;6.70;5.30;;;-0.20;74.90;;;;;;4935464;29;21012;-69
2023/01/21 04:27:49;;;;;;;5.57;4.10;;;-0.20;74.60;;;;;;4936178;29;20487;-68
2023/01/21 04:30:17;;;;;;;5.17;4.57;;;-0.20;74.60;;;;;;4935676;29;20527;-68
2023/01/21 04:32:45;;;;;;;5.27;4.80;;;-0.20;74.60;;;;;;4935582;29;20475;-68
2023/01/21 04:35:11;;;;;;;4.43;4.03;;;-0.20;74.60;;;;;;4935400;29;21016;-68
2023/01/21 04:37:39;;;;;;;4.67;3.97;;;-0.20;74.90;;;;;;4935647;29;20449;-68
2023/01/21 04:40:07;;;;;;;4.93;4.47;;;-0.20;74.60;;;;;;4935628;29;20452;-68
2023/01/21 04:42:34;;;;;;;4.67;3.67;;;-0.10;74.30;;;;;;4935588;29;20530;-68
2023/01/21 04:45:00;;;;;;;5.80;4.40;;;-0.20;74.60;;;;;;4935679;29;20452;-73
2023/01/21 04:47:27;;;;;;;4.70;4.30;;;-0.20;74.60;;;;;;4935800;29;20520;-68
2023/01/21 04:49:54;;;;;;;5.17;4.20;;;-0.20;74.30;;;;;;4935526;29;20455;-68
2023/01/21 04:52:20;;;;;;;4.83;4.40;;;-0.20;74.60;;;;;;4935487;29;20468;-69
2023/01/21 04:54:48;;;;;;;4.80;4.03;;;-0.20;74.50;;;;;;4935522;29;20460;-68
2023/01/21 04:57:15;;;;;;;5.23;4.73;;;-0.20;74.80;;;;;;4935471;29;20448;-69
2023/01/21 04:59:41;;;;;;;5.90;4.67;;;-0.20;74.60;;;;;;4935462;29;20479;-68
2023/01/21 05:02:08;;;;;;;6.10;4.70;;;-0.20;74.50;;;;;;4938357;29;20488;-69
2023/01/21 05:04:35;;;;;;;5.70;4.23;;;-0.20;74.70;;;;;;4938576;29;20945;-68
2023/01/21 05:07:02;;;;;;;4.10;3.70;;;-0.30;74.70;;;;;;4938856;29;20488;-68
2023/01/21 05:09:28;;;;;;;4.83;4.43;;;-0.30;74.60;;;;;;4938639;29;20487;-68
2023/01/21 05:11:56;;;;;;;4.30;3.83;;;-0.30;74.60;;;;;;4938649;29;20809;-68
2023/01/21 05:14:23;;;;;;;4.40;4.00;;;-0.30;74.60;;;;;;4938656;29;20455;-69
2023/01/21 05:16:49;;;;;;;5.00;4.47;;;-0.30;74.50;;;;;;4938657;29;20526;-68
2023/01/21 05:19:16;;;;;;;4.23;3.83;;;-0.30;74.40;;;;;;4938291;29;21004;-68
2023/01/21 05:21:43;;;;;;;4.60;4.20;;;-0.30;74.20;;;;;;4938197;29;21006;-69
2023/01/21 05:24:10;;;;;;;4.20;3.80;;;-0.30;74.20;;;;;;4938552;29;20456;-68
2023/01/21 05:26:36;;;;;;;3.80;3.47;;;-0.30;74.10;;;;;;4938724;29;20456;-69
2023/01/21 05:29:04;;;;;;;4.50;4.10;;;-0.30;74.30;;;;;;4938484;29;20610;-69
2023/01/21 05:31:31;;;;;;;5.20;4.10;;;-0.30;74.20;;;;;;4938769;29;20472;-68
2023/01/21 05:33:58;;;;;;;4.03;3.63;;;-0.30;74.10;;;;;;4938526;29;20868;-68
2023/01/21 05:36:24;;;;;;;4.30;3.90;;;-0.30;74.00;;;;;;4939012;29;20511;-68
2023/01/21 05:38:51;;;;;;;4.30;3.90;;;-0.30;74.20;;;;;;4938973;29;20459;-68
2023/01/21 05:41:18;;;;;;;4.90;4.40;;;-0.30;74.50;;;;;;4938623;29;20476;-68
2023/01/21 05:43:44;;;;;;;4.10;3.70;;;-0.40;74.80;;;;;;4939851;29;20790;-68
2023/01/21 05:46:12;;;;;;;5.70;4.30;;;-0.40;75.10;;;;;;4938740;29;20818;-68
2023/01/21 05:48:39;;;;;;;4.67;4.27;;;-0.30;75.20;;;;;;4938600;29;20534;-69
2023/01/21 05:51:06;;;;;;;4.37;3.97;;;-0.30;75.60;;;;;;4938073;29;20480;-69
2023/01/21 05:53:32;;;;;;;5.70;4.20;;;-0.30;76.00;;;;;;4938237;29;20448;-66
2023/01/21 05:55:59;;;;;;;4.00;3.70;;;-0.30;76.00;;;;;;4938321;29;20499;-69
2023/01/21 05:58:26;;;;;;;5.03;4.53;;;-0.20;76.00;;;;;;4938120;29;20452;-69
2023/01/21 06:00:53;;;;;;;4.70;4.27;;;-0.20;75.80;;;;;;4938003;29;21024;-69
2023/01/21 06:03:21;;;;;;;5.23;4.63;;;-0.20;75.80;;;;;;4938214;29;20480;-69
2023/01/21 06:05:49;;;;;;;5.77;3.83;;;-0.20;75.60;;;;;;4938193;29;20452;-68
2023/01/21 06:08:16;;;;;;;4.43;3.70;;;-0.10;75.60;;;;;;4937874;29;20479;-69
2023/01/21 06:10:43;;;;;;;5.07;4.57;;;-0.10;75.30;;;;;;4937564;29;20993;-68
2023/01/21 06:13:12;;;;;;;4.53;4.10;;;-0.10;75.30;;;;;;4936844;29;20487;-69
2023/01/21 06:15:38;;;;;;;4.07;3.63;;;-0.10;75.20;;;;;;4937847;29;20483;-69
2023/01/21 06:18:06;;;;;;;5.03;4.57;;;-0.20;75.30;;;;;;4937987;29;20448;-69
2023/01/21 06:20:34;;;;;;;5.43;4.10;;;-0.20;75.30;;;;;;4937730;29;20447;-69
2023/01/21 06:23:02;;;;;;;6.43;4.90;;;-0.20;75.20;;;;;;4937491;29;20447;-69
2023/01/21 06:25:29;;;;;;;4.93;4.10;;;-0.30;75.40;;;;;;4937841;29;20448;-68
2023/01/21 06:27:56;;;;;;;5.20;4.70;;;-0.30;75.60;;;;;;4937832;29;20448;-69
2023/01/21 06:30:23;;;;;;;4.93;4.43;;;-0.30;76.00;;;;;;4937348;29;20535;-69
2023/01/21 06:32:50;;;;;;;5.53;4.80;;;-0.20;76.30;;;;;;4937454;29;20456;-69
2023/01/21 06:35:17;;;;;;;5.10;4.60;;;-0.30;76.70;;;;;;4937309;29;20481;-69
2023/01/21 06:37:46;;;;;;;5.53;4.70;;;-0.30;77.20;;;;;;4937383;29;20456;-68
2023/01/21 06:40:14;;;;;;;6.63;5.60;;;-0.20;77.20;;;;;;4937407;29;20448;-69
2023/01/21 06:42:40;;;;;;;6.67;6.07;;;-0.30;77.80;;;;;;4937323;29;20468;-69
2023/01/21 06:45:08;;;;;;;6.70;5.67;;;-0.50;78.90;;;;;;4937271;29;20523;-69
2023/01/21 06:47:35;;;;;;;6.47;5.90;;;-0.50;79.60;;;;;;4936874;29;20964;-69
2023/01/21 06:50:01;;;;;;;7.30;6.63;;;-0.30;79.30;;;;;;4937000;29;20542;-69
2023/01/21 06:52:28;;;;;;;8.10;7.33;;;-0.20;79.40;;;;;;4936946;29;20463;-68
2023/01/21 06:54:56;;;;;;;8.10;7.33;;;-0.20;79.50;;;;;;4936981;29;20448;-69
2023/01/21 06:57:23;;;;;;;7.73;7.00;;;-0.10;79.60;;;;;;4936975;29;20452;-69
2023/01/21 06:59:50;;;;;;;7.67;6.97;;;0.00;79.40;;;;;;4937123;29;20451;-69
2023/01/21 07:02:17;;;;;;;8.07;7.30;;;-0.10;79.50;;;;;;4936548;29;20907;-69
2023/01/21 07:04:44;;;;;;;8.90;8.00;;;0.00;79.80;;;;;;4936956;29;20507;-68
2023/01/21 07:07:11;;;;;;;8.07;7.27;;;0.00;80.00;;;;;;4936899;29;20454;-69
2023/01/21 07:09:37;;;;;;;9.03;8.10;;;0.10;79.90;;;;;;4936793;29;20558;-68
2023/01/21 07:12:06;;;;;;;8.73;7.93;;;0.20;79.70;;;;;;4936433;29;20885;-68
2023/01/21 07:14:32;;;;;;;9.97;9.07;;;0.20;79.60;;;;;;4936925;29;20452;-69
2023/01/21 07:16:59;;;;;;;8.40;7.60;;;0.20;79.60;;;;;;4936545;29;20456;-69
2023/01/21 07:19:26;;;;;;;10.13;9.23;;;0.10;79.70;;;;;;4936504;29;20456;-69
2023/01/21 07:21:53;;;;;;;10.27;9.17;;;0.10;80.10;;;;;;4936170;29;21008;-69
2023/01/21 07:24:20;;;;;;;10.40;9.40;;;0.10;80.10;;;;;;4936103;29;20487;-68
2023/01/21 07:26:47;;;;;;;11.70;10.50;;;0.00;80.30;;;;;;4936505;29;20875;-69
2023/01/21 07:29:15;;;;;;;11.43;10.33;;;-0.10;80.70;;;;;;4936400;29;20487;-69
2023/01/21 07:31:41;;;;;;;10.07;8.83;;;-0.10;81.00;;;;;;4936412;29;20471;-69
2023/01/21 07:34:08;;;;;;;12.03;10.83;;;-0.10;81.00;;;;;;4936356;29;20508;-70
2023/01/21 07:36:35;;;;;;;12.13;10.50;;;-0.10;81.10;;;;;;4936340;29;20477;-69
2023/01/21 07:39:01;;;;;;;13.27;11.87;;;-0.10;80.90;;;;;;4936398;29;20443;-69
2023/01/21 07:41:28;;;;;;;11.83;10.63;;;-0.40;81.60;;;;;;4936214;29;20518;-69
2023/01/21 07:43:55;;;;;;;11.73;10.50;;;-0.40;82.20;;;;;;4936298;29;20523;-69
2023/01/21 07:46:23;;;;;;;12.27;11.07;;;-0.50;82.30;;;;;;4936183;29;20460;-69
2023/01/21 07:48:51;;;;;;;13.20;12.00;;;-0.60;82.50;;;;;;4938514;29;20562;-70
2023/01/21 07:51:18;;;;;;;12.87;10.90;;;-0.60;82.90;;;;;;4943484;29;20555;-71
2023/01/21 07:53:45;;;;;;;12.07;10.97;;;-0.60;83.00;;;;;;4943914;29;20444;-70
2023/01/21 07:56:12;;;;;;;10.97;9.97;;;-0.50;82.90;;;;;;4944418;29;20452;-70
2023/01/21 07:58:39;;;;;;;13.10;11.77;;;-0.50;82.70;;;;;;4936676;29;20444;-69
2023/01/21 08:01:07;;;;;;;12.30;11.10;;;-0.50;82.30;;;;;;4935925;29;20488;-69
2023/01/21 08:03:36;;;;;;;12.13;11.03;;;-0.50;82.80;;;;;;4936262;29;20461;-68
2023/01/21 08:06:02;;;;;;;13.83;12.33;;;-0.60;82.50;;;;;;4936058;29;20453;-69
2023/01/21 08:08:29;;;;;;;13.13;12.03;;;-0.50;83.30;;;;;;4935978;29;20487;-69
2023/01/21 08:10:55;;;;;;;13.87;12.33;;;-0.60;82.70;;;;;;4935565;29;20993;-69
2023/01/21 08:13:23;;;;;;;13.10;11.63;;;-0.60;82.80;;;;;;4935662;29;20817;-69
2023/01/21 08:15:50;;;;;;;12.57;11.10;;;-0.60;83.10;;;;;;4938666;29;20452;-70
2023/01/21 08:18:17;;;;;;;12.33;11.17;;;-0.40;83.00;;;;;;4943311;29;20511;-69
2023/01/21 08:20:45;;;;;;;12.50;11.30;;;-0.40;82.70;;;;;;4943038;29;20476;-70
2023/01/21 08:23:12;;;;;;;12.73;11.10;;;-0.20;82.40;;;;;;4943312;29;20452;-70
2023/01/21 08:25:38;;;;;;;13.60;12.20;;;-0.20;81.90;;;;;;4943518;29;20448;-70
2023/01/21 08:28:06;;;;;;;12.07;10.87;;;-0.20;82.00;;;;;;4943447;29;20804;-71
2023/01/21 08:30:32;;;;;;;12.43;11.03;;;0.00;82.00;;;;;;4937277;29;20480;-70
2023/01/21 08:32:59;;;;;;;12.93;11.73;;;0.00;81.40;;;;;;4936812;29;20864;-70
2023/01/21 08:35:26;;;;;;;11.83;10.60;;;0.10;81.40;;;;;;4938240;29;20871;-71
2023/01/21 08:37:56;;;;;;;11.73;10.50;;;-0.30;81.00;;;;;;4939810;29;20491;-69
2023/01/21 08:40:25;;;;;;;12.70;11.50;;;-0.20;82.30;;;;;;4939441;29;20443;-70
2023/01/21 08:42:51;;;;;;;13.33;11.93;;;-0.10;81.80;;;;;;4939513;29;20458;-69
2023/01/21 08:45:18;;;;;;;12.23;11.13;;;0.10;81.50;;;;;;4939167;29;20803;-70
2023/01/21 08:47:45;;;;;;;11.50;10.30;;;0.30;80.90;;;;;;4939276;29;20527;-69
2023/01/21 08:50:11;;;;;;;12.17;11.00;;;0.40;80.50;;;;;;4938928;29;21009;-70
2023/01/21 08:52:38;;;;;;;11.80;10.27;;;0.40;80.30;;;;;;4939048;29;20510;-69
2023/01/21 08:55:07;;;;;;;13.70;11.70;;;0.50;80.10;;;;;;4939173;29;20459;-68
2023/01/21 08:57:34;;;;;;;12.73;11.43;;;0.50;79.70;;;;;;4939111;29;20510;-68
2023/01/21 09:00:00;;;;;;;13.17;11.90;;;0.40;79.70;;;;;;4939093;29;20868;-69
2023/01/21 09:02:27;;;;;;;12.53;11.23;;;0.40;79.90;;;;;;4938759;29;21002;-69
2023/01/21 09:04:54;;;;;;;13.23;11.93;;;0.50;80.00;;;;;;4939203;29;20448;-69
2023/01/21 09:07:20;;;;;;;12.57;11.17;;;0.50;80.20;;;;;;4939187;29;20518;-69
2023/01/21 09:09:48;;;;;;;13.30;11.90;;;0.60;79.80;;;;;;4938686;29;21013;-68
2023/01/21 09:12:16;;;;;;;11.00;9.90;;;0.60;79.50;;;;;;4938884;29;20471;-69
2023/01/21 09:14:43;;;;;;;12.97;11.73;;;0.70;79.70;;;;;;4938769;29;20502;-69
2023/01/21 09:17:10;;;;;;;12.23;10.93;;;0.90;79.40;;;;;;4938901;29;20866;-69
2023/01/21 09:19:36;;;;;;;11.50;10.03;;;1.00;79.20;;;;;;4938761;29;20539;-68
2023/01/21 09:22:05;;;;;;;12.37;10.53;;;1.20;78.50;;;;;;4938487;29;20480;-69
2023/01/21 09:24:32;;;;;;;12.33;11.03;;;1.30;78.20;;;;;;4938676;29;20511;-70
2023/01/21 09:26:59;;;;;;;11.27;9.53;;;1.50;77.60;;;;;;4938570;29;20504;-69
2023/01/21 09:29:27;;;;;;;11.50;10.40;;;1.60;77.30;;;;;;4938398;29;20476;-69
2023/01/21 09:31:53;;;;;;;10.63;9.57;;;1.60;76.90;;;;;;4938282;29;20468;-69
2023/01/21 09:34:20;;;;;;;11.00;9.80;;;1.60;77.00;;;;;;4938446;29;20505;-70
2023/01/21 09:36:47;;;;;;;12.17;10.57;;;1.60;76.50;;;;;;4938241;29;20456;-69
2023/01/21 09:39:13;;;;;;;13.03;10.87;;;1.60;76.80;;;;;;4938287;29;20449;-69
2023/01/21 09:41:44;;;;;;;12.33;11.07;;;1.70;77.00;;;;;;4938142;29;20543;-69
2023/01/21 09:44:16;;;;;;;11.50;10.30;;;1.70;76.60;;;;;;4938735;29;20444;-69
2023/01/21 09:46:49;;;;;;;12.83;11.07;;;1.70;76.50;;;;;;4938108;29;20443;-69
2023/01/21 09:49:19;;;;;;;11.93;10.63;;;1.80;76.40;;;;;;4938086;29;20463;-70
2023/01/21 09:51:53;;;;;;;12.77;11.40;;;1.90;76.30;;;;;;4937658;29;21052;-69
2023/01/21 09:54:26;;;;;;;10.07;9.00;;;1.80;76.20;;;;;;4938075;29;20442;-70
2023/01/21 09:57:26;;;;;;;11.17;9.87;;;1.80;76.30;;;;;;4938106;29;20862;-69
2023/01/21 10:00:06;;;;;;;9.67;8.50;;;1.70;76.90;;;;;;4938444;29;20906;-70
2023/01/21 10:02:43;;;;;;;9.97;8.93;;;1.70;77.10;;;;;;4937848;29;21068;-68
2023/01/21 10:05:43;;;;;;;10.43;8.70;;;1.70;77.30;;;;;;4938589;29;20436;-69
2023/01/21 10:08:19;;;;;;;9.40;8.50;;;1.70;77.10;;;;;;4937741;29;20456;-69
2023/01/21 10:10:51;;;;;;;9.77;8.77;;;1.40;76.90;;;;;;4937980;29;20538;-70
2023/01/21 10:13:31;;;;;;;10.00;9.00;;;1.20;78.20;;;;;;4938101;29;20440;-69
2023/01/21 10:16:06;;;;;;;11.33;10.10;;;1.30;77.80;;;;;;4937889;29;20432;-69
2023/01/21 10:18:38;;;;;;;8.93;8.10;;;1.20;78.10;;;;;;4937983;29;20435;-69
2023/01/21 10:21:10;;;;;;;8.80;7.83;;;1.10;78.30;;;;;;4937559;29;21002;-70
2023/01/21 10:23:41;;;;;;;10.40;9.40;;;1.10;78.60;;;;;;4942503;29;20492;-71
2023/01/21 10:26:12;;;;;;;7.80;7.10;;;1.00;78.70;;;;;;4945000;29;20448;-71
2023/01/21 10:28:42;;;;;;;8.53;7.67;;;1.10;78.90;;;;;;4945117;29;20878;-71
2023/01/21 10:31:20;;;;;;;9.43;7.30;;;1.30;78.70;;;;;;4944289;29;21013;-68
2023/01/21 10:33:48;;;;;;;9.40;7.77;;;1.30;79.00;;;;;;4945744;29;20436;-70
2023/01/21 10:36:31;;;;;;;10.47;8.30;;;1.50;78.70;;;;;;4944763;29;20460;-70
2023/01/21 10:39:08;;;;;;;10.07;9.07;;;1.40;77.70;;;;;;4945493;29;20447;-70
2023/01/21 10:41:57;;;;;;;9.77;8.87;;;1.10;78.80;;;;;;4946939;29;20467;-68
2023/01/21 10:44:33;;;;;;;9.03;8.13;;;1.20;79.20;;;;;;4947483;29;20441;-70
2023/01/21 10:47:06;;;;;;;9.57;8.60;;;1.20;78.90;;;;;;4946846;29;20444;-70
2023/01/21 10:49:46;;;;;;;10.80;9.73;;;1.10;79.60;;;;;;4946632;29;20472;-67
2023/01/21 10:52:19;;;;;;;9.23;8.33;;;1.00;79.90;;;;;;4947484;29;20479;-70
2023/01/21 10:54:52;;;;;;;11.70;8.70;;;1.10;79.90;;;;;;4946849;29;20437;-70
2023/01/21 10:57:32;;;;;;;10.10;9.10;;;1.10;79.50;;;;;;4946735;29;20421;-70
2023/01/21 11:00:01;;;;;;;8.50;7.70;;;1.20;79.80;;;;;;4946361;29;20436;-70
2023/01/21 11:02:31;;;;;;;10.47;8.83;;;1.20;79.50;;;;;;4946324;29;20611;-70
2023/01/21 11:05:02;;;;;;;9.30;8.40;;;1.10;79.70;;;;;;4945943;29;20456;-71
2023/01/21 11:07:33;;;;;;;9.63;8.47;;;1.20;79.80;;;;;;4946672;29;20428;-72
2023/01/21 11:10:02;;;;;;;9.10;8.20;;;1.40;79.70;;;;;;4946783;29;20472;-72
2023/01/21 11:12:29;;;;;;;9.63;8.57;;;1.50;79.30;;;;;;4946546;29;20486;-70
2023/01/21 11:14:58;;;;;;;10.47;9.47;;;1.40;79.00;;;;;;4943483;29;20510;-72
2023/01/21 11:17:34;;;;;;;9.87;9.00;;;1.20;79.70;;;;;;4946366;29;20467;-69
2023/01/21 11:20:04;;;;;;;10.53;8.83;;;1.20;79.90;;;;;;4943643;29;20930;-71
2023/01/21 11:22:32;;;;;;;10.03;8.63;;;1.20;80.20;;;;;;4944295;29;20855;-69
2023/01/21 11:24:59;;;;;;;9.50;8.50;;;1.10;80.20;;;;;;4945791;29;20859;-73
2023/01/21 11:27:34;;;;;;;9.90;8.90;;;1.10;80.30;;;;;;4945581;29;20527;-72
2023/01/21 11:30:01;;;;;;;10.57;9.47;;;1.20;80.30;;;;;;4944135;29;20471;-70
2023/01/21 11:32:29;;;;;;;10.13;9.13;;;1.20;80.60;;;;;;4945531;29;20499;-70
2023/01/21 11:35:04;;;;;;;10.30;9.20;;;1.20;80.40;;;;;;4945408;29;20463;-70
2023/01/21 11:37:32;;;;;;;10.97;9.87;;;1.20;80.10;;;;;;4944862;29;20436;-76
2023/01/21 11:40:03;;;;;;;8.13;7.33;;;1.20;80.40;;;;;;4945676;29;20452;-71
2023/01/21 11:42:30;;;;;;;9.20;8.40;;;1.30;80.30;;;;;;4943695;29;20537;-69
2023/01/21 11:45:00;;;;;;;9.27;8.37;;;1.20;80.40;;;;;;4944306;29;20523;-69
2023/01/21 11:47:30;;;;;;;8.27;7.50;;;1.20;80.60;;;;;;4948410;29;20502;-68
2023/01/21 11:50:09;;;;;;;10.10;9.10;;;1.20;80.90;;;;;;4947569;29;20848;-68
2023/01/21 11:52:36;;;;;;;12.20;9.40;;;1.20;80.30;;;;;;4945561;29;20480;-68
2023/01/21 11:55:04;;;;;;;10.67;9.53;;;1.20;80.80;;;;;;4946685;29;20496;-69
2023/01/21 11:57:32;;;;;;;9.93;9.03;;;1.30;80.50;;;;;;4945956;29;20452;-70
2023/01/21 12:00:07;;;;;;;10.33;9.13;;;1.30;80.50;;;;;;4946088;29;20452;-69
2023/01/21 12:02:39;;;;;;;10.13;9.10;;;1.20;80.50;;;;;;4943594;29;20483;-68
2023/01/21 12:05:15;;;;;;;13.37;9.73;;;0.90;81.40;;;;;;4945902;29;20436;-69
2023/01/21 12:07:47;;;;;;;9.20;8.30;;;0.80;82.00;;;;;;4946141;29;20928;-68
2023/01/21 12:10:25;;;;;;;9.67;8.67;;;1.00;82.10;;;;;;4949445;29;20476;-69
2023/01/21 12:13:13;;;;;;;10.57;9.47;;;1.00;81.60;;;;;;4952619;29;20443;-69
2023/01/21 12:16:05;;;;;;;9.17;8.27;;;1.10;81.60;;;;;;4952242;29;20464;-69
2023/01/21 12:18:46;;;;;;;9.00;7.60;;;1.20;81.10;;;;;;4949756;29;20509;-69
2023/01/21 12:21:24;;;;;;;8.70;7.60;;;1.20;81.20;;;;;;4950836;29;20464;-69
2023/01/21 12:24:05;;;;;;;8.43;7.60;;;1.20;82.20;;;;;;4951186;29;20909;-69
2023/01/21 12:26:40;;;;;;;9.40;8.53;;;1.50;81.40;;;;;;4951096;29;20456;-68
2023/01/21 12:29:33;;;;;;;8.57;7.73;;;1.50;80.80;;;;;;4951838;29;20844;-68
2023/01/21 12:32:03;;;;;;;10.00;8.53;;;1.40;80.70;;;;;;4951240;29;20521;-67
2023/01/21 12:34:36;;;;;;;9.77;8.70;;;1.30;80.70;;;;;;4950134;29;20443;-68
2023/01/21 12:37:12;;;;;;;9.50;7.73;;;1.40;80.90;;;;;;4949989;29;20436;-68
2023/01/21 12:39:42;;;;;;;9.40;8.50;;;1.30;80.70;;;;;;4949373;29;20432;-68
2023/01/21 12:42:14;;;;;;;9.47;8.60;;;1.40;80.50;;;;;;4950157;29;20549;-68
2023/01/21 12:44:46;;;;;;;9.67;8.67;;;1.40;80.40;;;;;;4950345;29;20432;-69
2023/01/21 12:47:22;;;;;;;9.17;8.27;;;1.00;81.10;;;;;;4949283;29;20443;-67
2023/01/21 12:50:05;;;;;;;10.13;8.80;;;1.00;81.80;;;;;;4951423;29;20440;-69
2023/01/21 12:52:40;;;;;;;8.97;8.13;;;0.80;82.10;;;;;;4950968;29;20841;-67
2023/01/21 12:55:16;;;;;;;15.93;8.90;;;0.90;82.40;;;;;;4951602;29;20443;-69
2023/01/21 12:57:50;;;;;;;9.67;8.07;;;1.00;82.40;;;;;;4951926;29;20434;-68
2023/01/21 13:00:22;;;;;;;10.10;9.20;;;1.00;82.30;;;;;;4944858;29;20455;-69
2023/01/21 13:02:56;;;;;;;8.77;7.87;;;1.10;82.30;;;;;;4939967;29;20523;-69
2023/01/21 13:05:29;;;;;;;9.67;8.67;;;1.10;82.00;;;;;;4939685;29;20534;-68
2023/01/21 13:08:05;;;;;;;10.50;9.40;;;1.10;81.60;;;;;;4940000;29;20440;-68
2023/01/21 13:10:37;;;;;;;9.77;8.77;;;1.10;81.90;;;;;;4939768;29;20479;-69
2023/01/21 13:13:11;;;;;;;8.90;8.03;;;1.00;81.80;;;;;;4940263;29;20444;-68
2023/01/21 13:15:42;;;;;;;9.20;8.30;;;0.80;82.00;;;;;;4941839;29;20432;-68
2023/01/21 13:18:14;;;;;;;9.80;8.80;;;0.80;83.00;;;;;;4939161;29;20492;-68
2023/01/21 13:20:47;;;;;;;9.30;8.37;;;0.90;82.60;;;;;;4938691;29;20463;-68
2023/01/21 13:23:22;;;;;;;9.37;8.47;;;1.00;86.20;;;;;;4938718;29;20428;-70
2023/01/21 13:25:56;;;;;;;8.47;7.37;;;1.20;87.10;;;;;;4939501;29;20488;-69
2023/01/21 13:28:31;;;;;;;8.23;7.43;;;1.30;83.90;;;;;;4942202;29;20436;-68
2023/01/21 13:31:06;;;;;;;12.53;9.90;;;1.30;82.10;;;;;;4942387;29;20495;-68
2023/01/21 13:33:42;;;;;;;9.87;8.87;;;1.20;81.90;;;;;;4942462;29;20483;-67
2023/01/21 13:36:23;;;;;;;8.43;7.57;;;1.30;82.30;;;;;;4942726;29;20499;-68
2023/01/21 13:38:59;;;;;;;9.60;8.43;;;1.20;82.00;;;;;;4941552;29;20577;-68
2023/01/21 13:41:43;;;;;;;9.37;8.47;;;1.00;82.50;;;;;;4940636;29;20530;-68
2023/01/21 13:44:46;;;;;;;9.73;8.73;;;1.10;82.80;;;;;;4941140;29;20440;-68
2023/01/21 13:47:25;;;;;;;7.97;7.27;;;1.10;82.80;;;;;;4917016;29;20962;-68
2023/01/21 13:50:16;;;;;;;8.73;7.83;;;1.20;82.70;;;;;;4941858;29;20433;-68
2023/01/21 13:52:56;;;;;;;9.83;7.50;;;1.20;82.70;;;;;;4941004;29;20527;-68
2023/01/21 13:55:38;;;;;;;8.23;7.47;;;1.10;82.90;;;;;;4940118;29;20856;-68
2023/01/21 13:58:08;;;;;;;9.20;7.67;;;1.10;83.30;;;;;;4940036;29;20446;-68
2023/01/21 14:00:40;;;;;;;9.43;7.50;;;1.10;83.10;;;;;;4939447;29;20934;-67
2023/01/21 14:03:21;;;;;;;8.53;7.53;;;1.00;83.30;;;;;;4940524;29;20436;-69
2023/01/21 14:05:52;;;;;;;10.40;8.07;;;1.00;84.20;;;;;;4940424;29;20475;-68
2023/01/21 14:08:24;;;;;;;9.00;8.10;;;1.10;83.80;;;;;;4942220;29;20500;-68
2023/01/21 14:10:56;;;;;;;7.97;7.17;;;1.20;83.10;;;;;;4940315;29;21068;-68
2023/01/21 14:13:53;;;;;;;8.90;8.00;;;1.10;83.30;;;;;;4942766;29;20468;-68
2023/01/21 14:16:55;;;;;;;8.40;7.60;;;1.00;83.60;;;;;;4942459;29;20447;-68
2023/01/21 14:19:54;;;;;;;9.73;8.47;;;1.00;84.30;;;;;;4941768;29;20435;-68
2023/01/21 14:22:36;;;;;;;8.33;7.43;;;1.10;84.20;;;;;;4941988;29;20468;-68
2023/01/21 14:25:22;;;;;;;8.63;7.30;;;0.90;84.10;;;;;;4941263;29;20435;-67
2023/01/21 14:28:04;;;;;;;7.97;7.07;;;1.00;84.60;;;;;;4943246;29;20483;-68
2023/01/21 14:30:39;;;;;;;8.70;7.27;;;0.90;84.70;;;;;;4943065;29;20468;-69
2023/01/21 14:33:11;;;;;;;8.57;7.53;;;0.90;84.90;;;;;;4942080;29;20492;-67
2023/01/21 14:35:45;;;;;;;7.40;6.70;;;0.90;84.50;;;;;;4942985;29;20906;-68
2023/01/21 14:38:21;;;;;;;7.23;6.53;;;0.80;84.90;;;;;;4941067;29;20444;-68
2023/01/21 14:40:50;;;;;;;10.07;7.10;;;0.90;85.00;;;;;;4942056;29;20527;-67
2023/01/21 14:43:49;;;;;;;8.33;7.63;;;1.00;84.60;;;;;;4940927;29;20515;-68
2023/01/21 14:46:32;;;;;;;7.47;6.77;;;1.10;84.10;;;;;;4942979;29;20922;-68
2023/01/21 14:49:05;;;;;;;7.80;6.50;;;1.00;84.40;;;;;;4942464;29;20834;-68
2023/01/21 14:51:34;;;;;;;7.43;6.57;;;1.00;84.40;;;;;;4941839;29;20519;-68
2023/01/21 14:54:02;;;;;;;8.97;6.87;;;0.90;84.30;;;;;;4941057;29;20456;-68
2023/01/21 14:56:31;;;;;;;7.43;6.73;;;0.90;84.30;;;;;;4945032;29;20448;-69
2023/01/21 14:59:02;;;;;;;8.73;7.33;;;0.80;84.70;;;;;;4950757;29;20479;-69
2023/01/21 15:01:34;;;;;;;8.07;7.27;;;0.90;84.90;;;;;;4948908;29;20480;-68
2023/01/21 15:04:05;;;;;;;8.87;7.90;;;0.90;84.80;;;;;;4948143;29;20437;-68
2023/01/21 15:06:36;;;;;;;7.63;6.93;;;0.80;84.80;;;;;;4949506;29;20480;-68
2023/01/21 15:09:04;;;;;;;9.00;7.80;;;0.70;84.90;;;;;;4950962;29;20433;-68
2023/01/21 15:11:36;;;;;;;7.93;7.13;;;0.70;85.10;;;;;;4949450;29;20491;-69
2023/01/21 15:14:14;;;;;;;7.97;6.63;;;0.70;85.30;;;;;;4950317;29;20460;-70
2023/01/21 15:16:42;;;;;;;7.87;7.07;;;0.80;85.10;;;;;;4950702;29;20444;-67
2023/01/21 15:19:26;;;;;;;9.03;7.90;;;0.90;85.00;;;;;;4950571;29;20457;-68
2023/01/21 15:22:18;;;;;;;8.87;7.97;;;0.90;84.50;;;;;;4951556;29;20468;-68
2023/01/21 15:25:16;;;;;;;8.90;8.00;;;0.90;84.70;;;;;;4951097;29;20494;-68
2023/01/21 15:28:36;;;;;;;7.67;6.63;;;0.70;84.90;;;;;;4952260;29;20425;-68
2023/01/21 15:31:07;;;;;;;9.63;7.07;;;0.60;85.30;;;;;;4948982;29;21064;-68
2023/01/21 15:33:40;;;;;;;8.23;7.43;;;0.50;85.40;;;;;;4951282;29;20436;-67
2023/01/21 15:36:23;;;;;;;8.90;7.93;;;0.50;85.40;;;;;;4952187;29;20440;-67
2023/01/21 15:38:51;;;;;;;7.57;6.77;;;0.50;85.90;;;;;;4951221;29;20429;-69
2023/01/21 15:41:26;;;;;;;12.17;8.13;;;0.60;85.40;;;;;;4951531;29;20463;-69
2023/01/21 15:44:06;;;;;;;9.40;7.43;;;0.50;85.40;;;;;;4950962;29;20439;-68
2023/01/21 15:46:42;;;;;;;7.63;6.17;;;0.40;85.50;;;;;;4951187;29;20440;-67
2023/01/21 15:49:29;;;;;;;9.20;7.17;;;0.50;85.70;;;;;;4950845;29;20436;-67
2023/01/21 15:52:08;;;;;;;7.70;6.40;;;0.50;85.70;;;;;;4948561;29;20495;-69
2023/01/21 15:54:43;;;;;;;8.70;7.70;;;0.50;85.40;;;;;;4946222;29;20433;-67
2023/01/21 15:57:26;;;;;;;7.00;6.30;;;0.50;85.60;;;;;;4941759;29;20439;-67
2023/01/21 16:00:19;;;;;;;8.30;7.27;;;0.30;85.60;;;;;;4941512;29;20440;-67
2023/01/21 16:02:54;;;;;;;7.43;6.63;;;0.30;86.40;;;;;;4941512;29;20480;-67
2023/01/21 16:05:30;;;;;;;8.77;7.87;;;0.30;85.90;;;;;;4940483;29;20511;-68
2023/01/21 16:08:09;;;;;;;9.23;6.67;;;0.20;86.00;;;;;;4941812;29;20443;-68
2023/01/21 16:10:46;;;;;;;8.30;7.10;;;0.30;86.10;;;;;;4939880;29;20860;-67
2023/01/21 16:13:22;;;;;;;8.37;7.07;;;0.40;86.20;;;;;;4942221;29;20432;-67
2023/01/21 16:15:59;;;;;;;7.37;6.40;;;0.50;85.50;;;;;;4942733;29;20436;-68
2023/01/21 16:18:32;;;;;;;9.23;7.13;;;0.40;85.20;;;;;;4942200;29;20444;-68
2023/01/21 16:21:00;;;;;;;10.97;6.60;;;0.40;85.80;;;;;;4941405;29;20480;-68
2023/01/21 16:23:34;;;;;;;7.73;6.80;;;0.50;85.60;;;;;;4941922;29;20506;-68
2023/01/21 16:26:01;;;;;;;7.30;6.60;;;0.60;85.40;;;;;;4949429;29;20614;-68
2023/01/21 16:28:40;;;;;;;7.77;6.17;;;0.70;84.50;;;;;;4950271;29;20808;-69
2023/01/21 16:31:07;;;;;;;7.07;6.43;;;0.60;84.30;;;;;;4950106;29;20495;-69
2023/01/21 16:33:35;;;;;;;7.03;6.33;;;0.70;84.20;;;;;;4947992;29;20448;-67
2023/01/21 16:36:06;;;;;;;6.60;5.70;;;0.70;83.90;;;;;;4948808;29;20507;-69
2023/01/21 16:38:34;;;;;;;7.40;5.77;;;0.70;83.80;;;;;;4947463;29;20453;-69
2023/01/21 16:41:22;;;;;;;7.50;6.13;;;0.80;83.60;;;;;;4946765;29;20476;-69
2023/01/21 16:43:51;;;;;;;6.67;5.37;;;0.90;83.40;;;;;;4948189;29;20464;-69
2023/01/21 16:46:21;;;;;;;6.57;5.93;;;0.80;83.10;;;;;;4947902;29;20460;-69
2023/01/21 16:48:53;;;;;;;7.53;6.73;;;0.90;83.30;;;;;;4947206;29;20452;-68
2023/01/21 16:51:22;;;;;;;6.60;5.90;;;0.90;82.40;;;;;;4942133;29;20499;-68
2023/01/21 16:53:49;;;;;;;7.27;6.20;;;1.00;82.50;;;;;;4942260;29;20451;-68
2023/01/21 16:56:27;;;;;;;6.10;4.90;;;0.90;82.40;;;;;;4943887;29;20456;-68
2023/01/21 16:58:54;;;;;;;6.40;5.47;;;1.10;82.50;;;;;;4945967;29;20459;-68
2023/01/21 17:01:24;;;;;;;9.07;6.90;;;1.00;81.60;;;;;;4943337;29;20480;-70
2023/01/21 17:03:52;;;;;;;6.27;5.13;;;0.90;82.10;;;;;;4939889;29;20448;-69
2023/01/21 17:06:23;;;;;;;6.20;5.60;;;0.80;82.40;;;;;;4939638;29;20537;-69
2023/01/21 17:08:55;;;;;;;5.80;5.20;;;0.80;83.20;;;;;;4939469;29;20440;-69
2023/01/21 17:11:22;;;;;;;7.47;5.17;;;0.80;82.80;;;;;;4939432;29;20997;-68